sensor_id;sensor_type;location;lat;lon;timestamp;temperature;humidity
24444;DHT22;13346;50.984;5.822;2023-04-25T00:01:42;6.90;99.90
24444;DHT22;13346;50.984;5.822;2023-04-25T00:04:09;6.80;99.90
24444;DHT22;13346;50.984;5.822;2023-04-25T00:06:37;6.80;99.90
24444;DHT22;13346;50.984;5.822;2023-04-25T00:09:05;6.80;99.90
24444;DHT22;13346;50.984;5.822;2023-04-25T00:11:34;6.70;99.90
24444;DHT22;13346;50.984;5.822;2023-04-25T00:14:03;6.70;99.90
24444;DHT22;13346;50.984;5.822;2023-04-25T00:16:30;6.70;99.90
24444;DHT22;13346;50.984;5.822;2023-04-25T00:19:02;6.50;99.90
24444;DHT22;13346;50.984;5.822;2023-04-25T00:21:30;6.60;99.90
24444;DHT22;13346;50.984;5.822;2023-04-25T00:23:58;6.50;99.90
24444;DHT22;13346;50.984;5.822;2023-04-25T00:26:26;6.40;99.90
24444;DHT22;13346;50.984;5.822;2023-04-25T00:28:53;6.30;99.90
24444;DHT22;13346;50.984;5.822;2023-04-25T00:31:21;6.50;99.90
24444;DHT22;13346;50.984;5.822;2023-04-25T00:33:48;6.50;99.90
24444;DHT22;13346;50.984;5.822;2023-04-25T00:36:17;6.50;99.90
24444;DHT22;13346;50.984;5.822;2023-04-25T00:38:44;6.50;99.90
24444;DHT22;13346;50.984;5.822;2023-04-25T00:41:11;6.40;99.90
24444;DHT22;13346;50.984;5.822;2023-04-25T00:43:40;6.40;99.90
24444;DHT22;13346;50.984;5.822;2023-04-25T00:46:07;6.40;99.90
24444;DHT22;13346;50.984;5.822;2023-04-25T00:48:34;6.40;99.90
24444;DHT22;13346;50.984;5.822;2023-04-25T00:51:02;6.50;99.90
24444;DHT22;13346;50.984;5.822;2023-04-25T00:53:31;6.50;99.90
24444;DHT22;13346;50.984;5.822;2023-04-25T00:55:59;6.50;99.90
24444;DHT22;13346;50.984;5.822;2023-04-25T00:58:26;6.50;99.90
24444;DHT22;13346;50.984;5.822;2023-04-25T01:00:53;6.50;99.90
24444;DHT22;13346;50.984;5.822;2023-04-25T01:03:21;6.40;99.90
24444;DHT22;13346;50.984;5.822;2023-04-25T01:05:50;6.40;99.90
24444;DHT22;13346;50.984;5.822;2023-04-25T01:08:17;6.40;99.90
24444;DHT22;13346;50.984;5.822;2023-04-25T01:10:46;6.50;99.90
24444;DHT22;13346;50.984;5.822;2023-04-25T01:13:13;6.50;99.90
24444;DHT22;13346;50.984;5.822;2023-04-25T01:15:41;6.40;99.90
24444;DHT22;13346;50.984;5.822;2023-04-25T01:18:08;6.50;99.90
24444;DHT22;13346;50.984;5.822;2023-04-25T01:20:37;6.40;99.90
24444;DHT22;13346;50.984;5.822;2023-04-25T01:23:07;6.40;99.90
24444;DHT22;13346;50.984;5.822;2023-04-25T01:25:34;6.40;99.90
24444;DHT22;13346;50.984;5.822;2023-04-25T01:28:01;6.40;99.90
24444;DHT22;13346;50.984;5.822;2023-04-25T01:30:29;6.50;99.90
24444;DHT22;13346;50.984;5.822;2023-04-25T01:32:57;6.50;99.90
24444;DHT22;13346;50.984;5.822;2023-04-25T01:35:24;6.50;99.90
24444;DHT22;13346;50.984;5.822;2023-04-25T01:37:52;6.50;99.90
24444;DHT22;13346;50.984;5.822;2023-04-25T01:40:21;6.40;99.90
24444;DHT22;13346;50.984;5.822;2023-04-25T01:42:49;6.40;99.90
24444;DHT22;13346;50.984;5.822;2023-04-25T01:45:17;6.40;99.90
24444;DHT22;13346;50.984;5.822;2023-04-25T01:47:44;6.40;99.90
24444;DHT22;13346;50.984;5.822;2023-04-25T01:50:15;6.50;99.90
24444;DHT22;13346;50.984;5.822;2023-04-25T01:52:43;6.50;99.90
24444;DHT22;13346;50.984;5.822;2023-04-25T01:55:10;6.50;99.90
24444;DHT22;13346;50.984;5.822;2023-04-25T01:57:39;6.50;99.90
24444;DHT22;13346;50.984;5.822;2023-04-25T02:00:08;6.40;99.90
24444;DHT22;13346;50.984;5.822;2023-04-25T02:02:36;6.40;99.90
24444;DHT22;13346;50.984;5.822;2023-04-25T02:05:03;6.40;99.90
24444;DHT22;13346;50.984;5.822;2023-04-25T02:07:32;6.40;99.90
24444;DHT22;13346;50.984;5.822;2023-04-25T02:09:59;6.40;99.90
24444;DHT22;13346;50.984;5.822;2023-04-25T02:12:27;6.30;99.90
24444;DHT22;13346;50.984;5.822;2023-04-25T02:14:56;6.30;99.90
24444;DHT22;13346;50.984;5.822;2023-04-25T02:17:23;6.30;99.90
24444;DHT22;13346;50.984;5.822;2023-04-25T02:19:50;6.20;99.90
24444;DHT22;13346;50.984;5.822;2023-04-25T02:22:18;6.20;99.90
24444;DHT22;13346;50.984;5.822;2023-04-25T02:24:45;6.20;99.90
24444;DHT22;13346;50.984;5.822;2023-04-25T02:27:12;6.10;99.90
24444;DHT22;13346;50.984;5.822;2023-04-25T02:29:40;6.10;99.90
24444;DHT22;13346;50.984;5.822;2023-04-25T02:32:08;6.20;99.90
24444;DHT22;13346;50.984;5.822;2023-04-25T02:34:35;6.20;99.90
24444;DHT22;13346;50.984;5.822;2023-04-25T02:37:03;6.20;99.90
24444;DHT22;13346;50.984;5.822;2023-04-25T02:39:30;6.20;99.90
24444;DHT22;13346;50.984;5.822;2023-04-25T02:41:57;6.20;99.90
24444;DHT22;13346;50.984;5.822;2023-04-25T02:44:24;6.20;99.90
24444;DHT22;13346;50.984;5.822;2023-04-25T02:46:51;6.20;99.90
24444;DHT22;13346;50.984;5.822;2023-04-25T02:49:20;6.10;99.90
24444;DHT22;13346;50.984;5.822;2023-04-25T02:51:47;6.00;99.90
24444;DHT22;13346;50.984;5.822;2023-04-25T02:54:14;6.00;99.90
24444;DHT22;13346;50.984;5.822;2023-04-25T02:56:41;6.00;99.90
24444;DHT22;13346;50.984;5.822;2023-04-25T02:59:09;6.00;99.90
24444;DHT22;13346;50.984;5.822;2023-04-25T03:01:37;6.00;99.90
24444;DHT22;13346;50.984;5.822;2023-04-25T03:04:04;5.90;99.90
24444;DHT22;13346;50.984;5.822;2023-04-25T03:06:33;5.90;99.90
24444;DHT22;13346;50.984;5.822;2023-04-25T03:09:00;5.90;99.90
24444;DHT22;13346;50.984;5.822;2023-04-25T03:11:27;5.90;99.90
24444;DHT22;13346;50.984;5.822;2023-04-25T03:13:55;5.90;99.90
24444;DHT22;13346;50.984;5.822;2023-04-25T03:16:22;5.90;99.90
24444;DHT22;13346;50.984;5.822;2023-04-25T03:18:49;5.90;99.90
24444;DHT22;13346;50.984;5.822;2023-04-25T03:21:16;5.90;99.90
24444;DHT22;13346;50.984;5.822;2023-04-25T03:23:45;5.90;99.90
24444;DHT22;13346;50.984;5.822;2023-04-25T03:26:12;5.90;99.90
24444;DHT22;13346;50.984;5.822;2023-04-25T03:28:39;5.90;99.90
24444;DHT22;13346;50.984;5.822;2023-04-25T03:31:06;5.90;99.90
24444;DHT22;13346;50.984;5.822;2023-04-25T03:33:34;5.90;99.90
24444;DHT22;13346;50.984;5.822;2023-04-25T03:36:01;5.80;99.90
24444;DHT22;13346;50.984;5.822;2023-04-25T03:38:28;5.80;99.90
24444;DHT22;13346;50.984;5.822;2023-04-25T03:40:57;5.80;99.90
24444;DHT22;13346;50.984;5.822;2023-04-25T03:43:24;5.90;99.90
24444;DHT22;13346;50.984;5.822;2023-04-25T03:45:51;5.80;99.90
24444;DHT22;13346;50.984;5.822;2023-04-25T03:48:18;5.80;99.90
24444;DHT22;13346;50.984;5.822;2023-04-25T03:50:47;5.80;99.90
24444;DHT22;13346;50.984;5.822;2023-04-25T03:53:14;5.80;99.90
24444;DHT22;13346;50.984;5.822;2023-04-25T03:55:41;5.80;99.90
24444;DHT22;13346;50.984;5.822;2023-04-25T03:58:10;5.80;99.90
24444;DHT22;13346;50.984;5.822;2023-04-25T04:00:37;5.80;99.90
24444;DHT22;13346;50.984;5.822;2023-04-25T04:03:04;5.80;99.90
24444;DHT22;13346;50.984;5.822;2023-04-25T04:05:31;5.80;99.90
24444;DHT22;13346;50.984;5.822;2023-04-25T04:07:59;5.90;99.90
24444;DHT22;13346;50.984;5.822;2023-04-25T04:10:26;5.80;99.90
24444;DHT22;13346;50.984;5.822;2023-04-25T04:12:53;5.80;99.90
24444;DHT22;13346;50.984;5.822;2023-04-25T04:15:22;5.80;99.90
24444;DHT22;13346;50.984;5.822;2023-04-25T04:17:49;5.80;99.90
24444;DHT22;13346;50.984;5.822;2023-04-25T04:20:16;5.80;99.90
24444;DHT22;13346;50.984;5.822;2023-04-25T04:22:43;5.80;99.90
24444;DHT22;13346;50.984;5.822;2023-04-25T04:25:10;5.80;99.90
24444;DHT22;13346;50.984;5.822;2023-04-25T04:27:38;5.80;99.90
24444;DHT22;13346;50.984;5.822;2023-04-25T04:30:07;5.80;99.90
24444;DHT22;13346;50.984;5.822;2023-04-25T04:32:36;5.80;99.90
24444;DHT22;13346;50.984;5.822;2023-04-25T04:35:04;5.70;99.90
24444;DHT22;13346;50.984;5.822;2023-04-25T04:37:32;5.70;99.90
24444;DHT22;13346;50.984;5.822;2023-04-25T04:39:59;5.70;99.90
24444;DHT22;13346;50.984;5.822;2023-04-25T04:42:30;5.80;99.90
24444;DHT22;13346;50.984;5.822;2023-04-25T04:44:58;5.70;99.90
24444;DHT22;13346;50.984;5.822;2023-04-25T04:47:27;5.80;99.90
24444;DHT22;13346;50.984;5.822;2023-04-25T04:49:58;5.70;99.90
24444;DHT22;13346;50.984;5.822;2023-04-25T04:52:25;5.70;99.90
24444;DHT22;13346;50.984;5.822;2023-04-25T04:54:52;5.70;99.90
24444;DHT22;13346;50.984;5.822;2023-04-25T04:57:20;5.70;99.90
24444;DHT22;13346;50.984;5.822;2023-04-25T04:59:47;5.70;99.90
24444;DHT22;13346;50.984;5.822;2023-04-25T05:02:15;5.70;99.90
24444;DHT22;13346;50.984;5.822;2023-04-25T05:04:42;5.80;99.90
24444;DHT22;13346;50.984;5.822;2023-04-25T05:07:11;5.80;99.90
24444;DHT22;13346;50.984;5.822;2023-04-25T05:09:38;5.80;99.90
24444;DHT22;13346;50.984;5.822;2023-04-25T05:12:06;5.80;99.90
24444;DHT22;13346;50.984;5.822;2023-04-25T05:14:33;5.90;99.90
24444;DHT22;13346;50.984;5.822;2023-04-25T05:17:00;5.90;99.90
24444;DHT22;13346;50.984;5.822;2023-04-25T05:19:30;5.90;99.90
24444;DHT22;13346;50.984;5.822;2023-04-25T05:21:57;6.00;99.90
24444;DHT22;13346;50.984;5.822;2023-04-25T05:24:26;6.00;99.90
24444;DHT22;13346;50.984;5.822;2023-04-25T05:26:53;6.10;99.90
24444;DHT22;13346;50.984;5.822;2023-04-25T05:29:20;6.20;99.90
24444;DHT22;13346;50.984;5.822;2023-04-25T05:31:47;6.20;99.90
24444;DHT22;13346;50.984;5.822;2023-04-25T05:34:15;6.20;99.90
24444;DHT22;13346;50.984;5.822;2023-04-25T05:36:42;6.30;99.90
24444;DHT22;13346;50.984;5.822;2023-04-25T05:39:09;6.40;99.90
24444;DHT22;13346;50.984;5.822;2023-04-25T05:41:38;6.40;99.90
24444;DHT22;13346;50.984;5.822;2023-04-25T05:44:05;6.50;99.90
24444;DHT22;13346;50.984;5.822;2023-04-25T05:46:32;6.60;99.90
24444;DHT22;13346;50.984;5.822;2023-04-25T05:49:00;6.50;99.90
24444;DHT22;13346;50.984;5.822;2023-04-25T05:51:27;6.80;99.90
24444;DHT22;13346;50.984;5.822;2023-04-25T05:53:54;6.70;99.90
24444;DHT22;13346;50.984;5.822;2023-04-25T05:56:21;6.60;99.90
24444;DHT22;13346;50.984;5.822;2023-04-25T05:58:50;6.80;99.90
24444;DHT22;13346;50.984;5.822;2023-04-25T06:01:17;6.80;99.90
24444;DHT22;13346;50.984;5.822;2023-04-25T06:03:44;7.00;99.90
24444;DHT22;13346;50.984;5.822;2023-04-25T06:06:12;7.20;99.90
24444;DHT22;13346;50.984;5.822;2023-04-25T06:08:39;7.30;99.90
24444;DHT22;13346;50.984;5.822;2023-04-25T06:11:07;7.50;99.90
24444;DHT22;13346;50.984;5.822;2023-04-25T06:13:34;7.10;99.90
24444;DHT22;13346;50.984;5.822;2023-04-25T06:16:03;7.00;99.90
24444;DHT22;13346;50.984;5.822;2023-04-25T06:18:30;7.10;99.90
24444;DHT22;13346;50.984;5.822;2023-04-25T06:20:57;7.10;99.90
24444;DHT22;13346;50.984;5.822;2023-04-25T06:23:25;7.40;99.90
24444;DHT22;13346;50.984;5.822;2023-04-25T06:25:52;8.20;99.90
24444;DHT22;13346;50.984;5.822;2023-04-25T06:28:19;8.10;99.90
24444;DHT22;13346;50.984;5.822;2023-04-25T06:30:47;8.70;99.90
24444;DHT22;13346;50.984;5.822;2023-04-25T06:33:16;8.00;99.90
24444;DHT22;13346;50.984;5.822;2023-04-25T06:35:43;8.10;99.90
24444;DHT22;13346;50.984;5.822;2023-04-25T06:38:11;7.50;99.90
24444;DHT22;13346;50.984;5.822;2023-04-25T06:40:38;7.60;99.90
24444;DHT22;13346;50.984;5.822;2023-04-25T06:43:05;7.70;99.90
24444;DHT22;13346;50.984;5.822;2023-04-25T06:45:32;7.50;99.90
24444;DHT22;13346;50.984;5.822;2023-04-25T06:48:00;7.70;99.90
24444;DHT22;13346;50.984;5.822;2023-04-25T06:50:28;7.60;99.90
24444;DHT22;13346;50.984;5.822;2023-04-25T06:52:56;7.50;99.90
24444;DHT22;13346;50.984;5.822;2023-04-25T06:55:23;7.40;99.90
24444;DHT22;13346;50.984;5.822;2023-04-25T06:57:50;7.60;99.90
24444;DHT22;13346;50.984;5.822;2023-04-25T07:00:18;7.50;99.90
24444;DHT22;13346;50.984;5.822;2023-04-25T07:02:45;7.40;99.90
24444;DHT22;13346;50.984;5.822;2023-04-25T07:05:12;7.60;99.90
24444;DHT22;13346;50.984;5.822;2023-04-25T07:07:41;7.40;99.90
24444;DHT22;13346;50.984;5.822;2023-04-25T07:10:09;7.90;99.90
24444;DHT22;13346;50.984;5.822;2023-04-25T07:12:36;7.90;99.90
24444;DHT22;13346;50.984;5.822;2023-04-25T07:15:04;7.80;99.90
24444;DHT22;13346;50.984;5.822;2023-04-25T07:17:32;7.70;99.90
24444;DHT22;13346;50.984;5.822;2023-04-25T07:20:00;7.60;99.90
24444;DHT22;13346;50.984;5.822;2023-04-25T07:22:29;7.90;99.90
24444;DHT22;13346;50.984;5.822;2023-04-25T07:24:58;7.90;99.90
24444;DHT22;13346;50.984;5.822;2023-04-25T07:27:25;8.10;99.90
24444;DHT22;13346;50.984;5.822;2023-04-25T07:29:52;8.10;99.90
24444;DHT22;13346;50.984;5.822;2023-04-25T07:32:19;7.70;99.90
24444;DHT22;13346;50.984;5.822;2023-04-25T07:34:46;8.20;99.90
24444;DHT22;13346;50.984;5.822;2023-04-25T07:37:14;8.00;99.90
24444;DHT22;13346;50.984;5.822;2023-04-25T07:39:41;8.00;99.90
24444;DHT22;13346;50.984;5.822;2023-04-25T07:42:10;7.70;99.90
24444;DHT22;13346;50.984;5.822;2023-04-25T07:44:37;7.90;99.90
24444;DHT22;13346;50.984;5.822;2023-04-25T07:47:05;8.30;99.90
24444;DHT22;13346;50.984;5.822;2023-04-25T07:49:33;8.40;99.90
24444;DHT22;13346;50.984;5.822;2023-04-25T07:52:01;8.40;99.90
24444;DHT22;13346;50.984;5.822;2023-04-25T07:54:29;8.70;99.90
24444;DHT22;13346;50.984;5.822;2023-04-25T07:56:56;8.60;99.90
24444;DHT22;13346;50.984;5.822;2023-04-25T07:59:25;8.30;99.90
24444;DHT22;13346;50.984;5.822;2023-04-25T08:01:52;8.30;99.90
24444;DHT22;13346;50.984;5.822;2023-04-25T08:04:19;8.40;99.90
24444;DHT22;13346;50.984;5.822;2023-04-25T08:06:46;8.50;99.90
24444;DHT22;13346;50.984;5.822;2023-04-25T08:09:14;8.40;99.90
24444;DHT22;13346;50.984;5.822;2023-04-25T08:11:41;8.70;99.90
24444;DHT22;13346;50.984;5.822;2023-04-25T08:14:08;8.60;99.90
24444;DHT22;13346;50.984;5.822;2023-04-25T08:16:37;9.10;99.90
24444;DHT22;13346;50.984;5.822;2023-04-25T08:19:04;8.40;99.90
24444;DHT22;13346;50.984;5.822;2023-04-25T08:21:31;8.40;99.90
24444;DHT22;13346;50.984;5.822;2023-04-25T08:23:59;8.40;99.90
24444;DHT22;13346;50.984;5.822;2023-04-25T08:26:26;8.90;99.90
24444;DHT22;13346;50.984;5.822;2023-04-25T08:28:53;8.80;99.90
24444;DHT22;13346;50.984;5.822;2023-04-25T08:31:20;8.80;99.90
24444;DHT22;13346;50.984;5.822;2023-04-25T08:33:49;8.40;99.90
24444;DHT22;13346;50.984;5.822;2023-04-25T08:36:17;8.60;99.90
24444;DHT22;13346;50.984;5.822;2023-04-25T08:38:44;9.00;99.90
24444;DHT22;13346;50.984;5.822;2023-04-25T08:41:12;9.60;99.90
24444;DHT22;13346;50.984;5.822;2023-04-25T08:43:42;9.60;99.90
24444;DHT22;13346;50.984;5.822;2023-04-25T08:46:11;8.60;99.90
24444;DHT22;13346;50.984;5.822;2023-04-25T08:48:40;8.10;99.90
24444;DHT22;13346;50.984;5.822;2023-04-25T08:51:15;8.40;99.90
24444;DHT22;13346;50.984;5.822;2023-04-25T08:53:43;8.90;99.90
24444;DHT22;13346;50.984;5.822;2023-04-25T08:56:12;8.60;99.90
24444;DHT22;13346;50.984;5.822;2023-04-25T08:58:44;8.80;99.90
24444;DHT22;13346;50.984;5.822;2023-04-25T09:01:11;8.80;99.90
24444;DHT22;13346;50.984;5.822;2023-04-25T09:03:38;8.70;99.90
24444;DHT22;13346;50.984;5.822;2023-04-25T09:06:09;8.70;99.90
24444;DHT22;13346;50.984;5.822;2023-04-25T09:08:38;9.70;99.90
24444;DHT22;13346;50.984;5.822;2023-04-25T09:11:06;9.70;99.90
24444;DHT22;13346;50.984;5.822;2023-04-25T09:13:34;9.20;99.90
24444;DHT22;13346;50.984;5.822;2023-04-25T09:16:01;9.20;99.90
24444;DHT22;13346;50.984;5.822;2023-04-25T09:18:30;9.80;99.90
24444;DHT22;13346;50.984;5.822;2023-04-25T09:21:05;9.80;99.90
24444;DHT22;13346;50.984;5.822;2023-04-25T09:23:41;9.80;99.90
24444;DHT22;13346;50.984;5.822;2023-04-25T09:26:08;9.70;99.90
24444;DHT22;13346;50.984;5.822;2023-04-25T09:28:36;9.70;99.90
24444;DHT22;13346;50.984;5.822;2023-04-25T09:31:03;8.60;99.90
24444;DHT22;13346;50.984;5.822;2023-04-25T09:33:32;8.50;99.90
24444;DHT22;13346;50.984;5.822;2023-04-25T09:36:05;8.50;99.90
24444;DHT22;13346;50.984;5.822;2023-04-25T09:38:41;8.60;99.90
24444;DHT22;13346;50.984;5.822;2023-04-25T09:41:09;8.80;99.90
24444;DHT22;13346;50.984;5.822;2023-04-25T09:43:37;8.90;99.90
24444;DHT22;13346;50.984;5.822;2023-04-25T09:46:09;8.80;99.90
24444;DHT22;13346;50.984;5.822;2023-04-25T09:48:37;8.80;99.90
24444;DHT22;13346;50.984;5.822;2023-04-25T09:51:05;8.80;99.90
24444;DHT22;13346;50.984;5.822;2023-04-25T09:53:33;8.80;99.90
24444;DHT22;13346;50.984;5.822;2023-04-25T09:56:03;9.00;99.90
24444;DHT22;13346;50.984;5.822;2023-04-25T09:58:33;8.80;99.90
24444;DHT22;13346;50.984;5.822;2023-04-25T10:01:03;8.80;99.90
24444;DHT22;13346;50.984;5.822;2023-04-25T10:03:31;9.30;99.90
24444;DHT22;13346;50.984;5.822;2023-04-25T10:06:00;9.10;99.90
24444;DHT22;13346;50.984;5.822;2023-04-25T10:08:31;9.50;99.90
24444;DHT22;13346;50.984;5.822;2023-04-25T10:11:03;10.10;99.90
24444;DHT22;13346;50.984;5.822;2023-04-25T10:13:31;11.80;99.90
24444;DHT22;13346;50.984;5.822;2023-04-25T10:15:59;10.20;99.90
24444;DHT22;13346;50.984;5.822;2023-04-25T10:18:28;9.30;99.90
24444;DHT22;13346;50.984;5.822;2023-04-25T10:20:57;9.00;99.90
24444;DHT22;13346;50.984;5.822;2023-04-25T10:23:25;8.90;99.90
24444;DHT22;13346;50.984;5.822;2023-04-25T10:25:53;8.90;99.90
24444;DHT22;13346;50.984;5.822;2023-04-25T10:28:22;8.50;99.90
24444;DHT22;13346;50.984;5.822;2023-04-25T10:30:58;8.40;99.90
24444;DHT22;13346;50.984;5.822;2023-04-25T10:33:35;8.30;99.90
24444;DHT22;13346;50.984;5.822;2023-04-25T10:36:10;8.20;99.90
24444;DHT22;13346;50.984;5.822;2023-04-25T10:38:38;8.30;99.90
24444;DHT22;13346;50.984;5.822;2023-04-25T10:41:06;8.20;99.90
24444;DHT22;13346;50.984;5.822;2023-04-25T10:43:40;8.30;99.90
24444;DHT22;13346;50.984;5.822;2023-04-25T10:46:18;8.40;99.90
24444;DHT22;13346;50.984;5.822;2023-04-25T10:48:47;8.60;99.90
24444;DHT22;13346;50.984;5.822;2023-04-25T10:51:20;9.10;99.90
24444;DHT22;13346;50.984;5.822;2023-04-25T10:53:56;9.20;99.90
24444;DHT22;13346;50.984;5.822;2023-04-25T10:56:26;9.10;99.90
24444;DHT22;13346;50.984;5.822;2023-04-25T10:59:04;9.90;99.90
24444;DHT22;13346;50.984;5.822;2023-04-25T11:01:36;9.80;99.90
24444;DHT22;13346;50.984;5.822;2023-04-25T11:04:04;9.20;99.90
24444;DHT22;13346;50.984;5.822;2023-04-25T11:06:40;9.70;99.90
24444;DHT22;13346;50.984;5.822;2023-04-25T11:09:11;9.40;99.90
24444;DHT22;13346;50.984;5.822;2023-04-25T11:11:39;9.60;99.90
24444;DHT22;13346;50.984;5.822;2023-04-25T11:14:08;9.70;99.90
24444;DHT22;13346;50.984;5.822;2023-04-25T11:16:35;9.90;99.90
24444;DHT22;13346;50.984;5.822;2023-04-25T11:19:03;10.40;99.90
24444;DHT22;13346;50.984;5.822;2023-04-25T11:21:30;10.70;99.90
24444;DHT22;13346;50.984;5.822;2023-04-25T11:23:59;10.70;99.90
24444;DHT22;13346;50.984;5.822;2023-04-25T11:26:26;10.50;99.90
24444;DHT22;13346;50.984;5.822;2023-04-25T11:28:57;10.60;99.90
24444;DHT22;13346;50.984;5.822;2023-04-25T11:31:27;11.30;99.90
24444;DHT22;13346;50.984;5.822;2023-04-25T11:33:57;10.90;99.90
24444;DHT22;13346;50.984;5.822;2023-04-25T11:36:24;10.10;99.90
24444;DHT22;13346;50.984;5.822;2023-04-25T11:38:53;10.80;99.90
24444;DHT22;13346;50.984;5.822;2023-04-25T11:41:20;11.40;99.90
24444;DHT22;13346;50.984;5.822;2023-04-25T11:43:48;10.80;99.90
24444;DHT22;13346;50.984;5.822;2023-04-25T11:46:17;11.20;99.90
24444;DHT22;13346;50.984;5.822;2023-04-25T11:48:47;10.80;99.90
24444;DHT22;13346;50.984;5.822;2023-04-25T11:51:16;10.70;99.90
24444;DHT22;13346;50.984;5.822;2023-04-25T11:53:44;10.80;99.90
24444;DHT22;13346;50.984;5.822;2023-04-25T11:56:12;11.20;99.90
24444;DHT22;13346;50.984;5.822;2023-04-25T11:58:59;10.80;99.90
24444;DHT22;13346;50.984;5.822;2023-04-25T12:01:28;10.40;99.90
24444;DHT22;13346;50.984;5.822;2023-04-25T12:03:58;11.10;99.90
24444;DHT22;13346;50.984;5.822;2023-04-25T12:06:28;12.30;99.90
24444;DHT22;13346;50.984;5.822;2023-04-25T12:09:00;12.20;98.30
24444;DHT22;13346;50.984;5.822;2023-04-25T12:11:30;11.20;99.90
24444;DHT22;13346;50.984;5.822;2023-04-25T12:14:02;11.30;99.90
24444;DHT22;13346;50.984;5.822;2023-04-25T12:16:39;11.70;99.90
24444;DHT22;13346;50.984;5.822;2023-04-25T12:19:08;11.60;99.90
24444;DHT22;13346;50.984;5.822;2023-04-25T12:21:36;12.10;99.90
24444;DHT22;13346;50.984;5.822;2023-04-25T12:24:13;11.90;99.90
24444;DHT22;13346;50.984;5.822;2023-04-25T12:26:51;10.90;99.90
24444;DHT22;13346;50.984;5.822;2023-04-25T12:29:20;11.10;99.90
24444;DHT22;13346;50.984;5.822;2023-04-25T12:31:48;12.20;99.90
24444;DHT22;13346;50.984;5.822;2023-04-25T12:34:17;13.40;99.90
24444;DHT22;13346;50.984;5.822;2023-04-25T12:36:45;14.30;73.80
24444;DHT22;13346;50.984;5.822;2023-04-25T12:39:15;12.50;99.00
24444;DHT22;13346;50.984;5.822;2023-04-25T12:41:43;12.10;99.90
24444;DHT22;13346;50.984;5.822;2023-04-25T12:44:11;11.90;99.90
24444;DHT22;13346;50.984;5.822;2023-04-25T12:46:39;10.60;99.90
24444;DHT22;13346;50.984;5.822;2023-04-25T12:49:07;9.90;99.90
24444;DHT22;13346;50.984;5.822;2023-04-25T12:51:36;9.60;99.90
24444;DHT22;13346;50.984;5.822;2023-04-25T12:54:05;9.60;99.90
24444;DHT22;13346;50.984;5.822;2023-04-25T12:56:32;9.00;99.90
24444;DHT22;13346;50.984;5.822;2023-04-25T12:59:00;8.60;99.90
24444;DHT22;13346;50.984;5.822;2023-04-25T13:01:29;8.80;99.90
24444;DHT22;13346;50.984;5.822;2023-04-25T13:03:56;8.90;99.90
24444;DHT22;13346;50.984;5.822;2023-04-25T13:06:23;9.10;99.90
24444;DHT22;13346;50.984;5.822;2023-04-25T13:08:53;9.40;99.90
24444;DHT22;13346;50.984;5.822;2023-04-25T13:11:20;9.60;99.90
24444;DHT22;13346;50.984;5.822;2023-04-25T13:13:47;9.90;99.90
24444;DHT22;13346;50.984;5.822;2023-04-25T13:16:15;10.00;99.90
24444;DHT22;13346;50.984;5.822;2023-04-25T13:18:42;9.90;99.90
24444;DHT22;13346;50.984;5.822;2023-04-25T13:21:09;10.10;99.90
24444;DHT22;13346;50.984;5.822;2023-04-25T13:23:37;10.00;99.90
24444;DHT22;13346;50.984;5.822;2023-04-25T13:26:06;10.30;99.90
24444;DHT22;13346;50.984;5.822;2023-04-25T13:28:33;10.40;99.90
24444;DHT22;13346;50.984;5.822;2023-04-25T13:31:00;10.70;99.90
24444;DHT22;13346;50.984;5.822;2023-04-25T13:33:28;11.70;99.90
24444;DHT22;13346;50.984;5.822;2023-04-25T13:35:55;12.20;94.20
24444;DHT22;13346;50.984;5.822;2023-04-25T13:38:23;11.60;99.90
24444;DHT22;13346;50.984;5.822;2023-04-25T13:40:51;11.20;99.90
24444;DHT22;13346;50.984;5.822;2023-04-25T13:43:21;11.60;99.90
24444;DHT22;13346;50.984;5.822;2023-04-25T13:45:48;10.70;99.90
24444;DHT22;13346;50.984;5.822;2023-04-25T13:48:16;10.40;99.90
24444;DHT22;13346;50.984;5.822;2023-04-25T13:50:43;10.00;99.90
24444;DHT22;13346;50.984;5.822;2023-04-25T13:53:10;9.40;99.90
24444;DHT22;13346;50.984;5.822;2023-04-25T13:55:38;9.60;99.90
24444;DHT22;13346;50.984;5.822;2023-04-25T13:58:05;9.60;99.90
24444;DHT22;13346;50.984;5.822;2023-04-25T14:00:38;9.60;99.90
24444;DHT22;13346;50.984;5.822;2023-04-25T14:03:06;9.50;99.90
24444;DHT22;13346;50.984;5.822;2023-04-25T14:05:34;9.60;99.90
24444;DHT22;13346;50.984;5.822;2023-04-25T14:08:06;9.40;99.90
24444;DHT22;13346;50.984;5.822;2023-04-25T14:10:33;9.40;99.90
24444;DHT22;13346;50.984;5.822;2023-04-25T14:13:01;9.40;99.90
24444;DHT22;13346;50.984;5.822;2023-04-25T14:15:30;9.50;99.90
24444;DHT22;13346;50.984;5.822;2023-04-25T14:17:59;9.70;99.90
24444;DHT22;13346;50.984;5.822;2023-04-25T14:20:26;9.80;99.90
24444;DHT22;13346;50.984;5.822;2023-04-25T14:22:54;10.10;99.90
24444;DHT22;13346;50.984;5.822;2023-04-25T14:25:22;10.10;99.90
24444;DHT22;13346;50.984;5.822;2023-04-25T14:27:49;11.10;99.90
24444;DHT22;13346;50.984;5.822;2023-04-25T14:30:17;13.20;99.90
24444;DHT22;13346;50.984;5.822;2023-04-25T14:32:44;13.20;99.90
24444;DHT22;13346;50.984;5.822;2023-04-25T14:35:13;12.10;99.90
24444;DHT22;13346;50.984;5.822;2023-04-25T14:37:40;12.10;99.90
24444;DHT22;13346;50.984;5.822;2023-04-25T14:40:08;10.70;99.90
24444;DHT22;13346;50.984;5.822;2023-04-25T14:42:38;10.40;93.50
24444;DHT22;13346;50.984;5.822;2023-04-25T14:45:07;11.10;99.90
24444;DHT22;13346;50.984;5.822;2023-04-25T14:47:34;10.60;76.20
24444;DHT22;13346;50.984;5.822;2023-04-25T14:50:02;10.80;71.90
24444;DHT22;13346;50.984;5.822;2023-04-25T14:52:31;11.10;41.40
24444;DHT22;13346;50.984;5.822;2023-04-25T14:54:58;11.60;45.90
24444;DHT22;13346;50.984;5.822;2023-04-25T14:57:30;12.10;62.80
24444;DHT22;13346;50.984;5.822;2023-04-25T14:59:57;13.50;56.10
24444;DHT22;13346;50.984;5.822;2023-04-25T15:02:25;14.90;81.40
24444;DHT22;13346;50.984;5.822;2023-04-25T15:04:53;11.40;99.90
24444;DHT22;13346;50.984;5.822;2023-04-25T15:07:20;10.10;99.90
24444;DHT22;13346;50.984;5.822;2023-04-25T15:09:49;10.40;99.90
24444;DHT22;13346;50.984;5.822;2023-04-25T15:12:16;11.40;99.90
24444;DHT22;13346;50.984;5.822;2023-04-25T15:14:43;10.60;99.90
24444;DHT22;13346;50.984;5.822;2023-04-25T15:17:10;10.50;99.90
24444;DHT22;13346;50.984;5.822;2023-04-25T15:19:39;11.80;99.90
24444;DHT22;13346;50.984;5.822;2023-04-25T15:22:07;11.70;99.90
24444;DHT22;13346;50.984;5.822;2023-04-25T15:24:34;12.20;99.90
24444;DHT22;13346;50.984;5.822;2023-04-25T15:27:03;11.20;99.90
24444;DHT22;13346;50.984;5.822;2023-04-25T15:29:30;12.50;99.90
24444;DHT22;13346;50.984;5.822;2023-04-25T15:32:00;12.70;57.10
24444;DHT22;13346;50.984;5.822;2023-04-25T15:34:27;11.10;78.60
24444;DHT22;13346;50.984;5.822;2023-04-25T15:36:54;10.40;99.90
24444;DHT22;13346;50.984;5.822;2023-04-25T15:39:23;10.50;99.90
24444;DHT22;13346;50.984;5.822;2023-04-25T15:41:50;11.20;99.90
24444;DHT22;13346;50.984;5.822;2023-04-25T15:44:18;11.20;90.90
24444;DHT22;13346;50.984;5.822;2023-04-25T15:46:46;11.40;99.90
24444;DHT22;13346;50.984;5.822;2023-04-25T15:49:13;10.70;95.70